createdAt,value
2023-05-23T00:00:22.266Z,17.73
2023-05-23T00:02:49.803Z,17.27
2023-05-23T00:05:19.079Z,17.80
2023-05-23T00:07:46.230Z,18.60
2023-05-23T00:10:14.464Z,17.93
2023-05-23T00:12:42.527Z,19.03
2023-05-23T00:15:10.131Z,17.90
2023-05-23T00:17:38.358Z,18.60
2023-05-23T00:20:06.020Z,21.63
2023-05-23T00:22:33.162Z,19.03
2023-05-23T00:25:02.193Z,20.03
2023-05-23T00:27:29.447Z,21.80
2023-05-23T00:29:56.788Z,21.47
2023-05-23T00:32:23.931Z,20.40
2023-05-23T00:34:54.108Z,23.23
2023-05-23T00:37:22.428Z,20.90
2023-05-23T00:39:49.721Z,19.83
2023-05-23T00:42:16.881Z,21.53
2023-05-23T00:44:44.056Z,22.77
2023-05-23T00:47:13.803Z,21.13
2023-05-23T00:49:41.506Z,20.40
2023-05-23T00:52:08.726Z,20.07
2023-05-23T00:54:37.226Z,22.13
2023-05-23T00:57:04.578Z,24.73
2023-05-23T00:59:31.870Z,23.80
2023-05-23T01:02:00.388Z,27.50
2023-05-23T01:04:28.362Z,25.20
2023-05-23T01:06:56.153Z,27.90
2023-05-23T01:09:24.364Z,28.37
2023-05-23T01:11:51.587Z,28.77
2023-05-23T01:14:22.134Z,30.07
2023-05-23T01:17:24.939Z,29.23
2023-05-23T01:20:05.617Z,34.83
2023-05-23T01:22:48.643Z,27.17
2023-05-23T01:25:36.266Z,30.63
2023-05-23T01:28:05.782Z,26.53
2023-05-23T01:30:33.569Z,24.53
2023-05-23T01:33:01.449Z,25.90
2023-05-23T01:35:29.002Z,27.13
2023-05-23T01:37:56.889Z,26.93
2023-05-23T01:40:24.423Z,24.50
2023-05-23T01:42:52.760Z,24.60
2023-05-23T01:45:20.877Z,24.13
2023-05-23T01:47:49.926Z,26.60
2023-05-23T01:50:17.606Z,26.13
2023-05-23T01:52:44.889Z,24.30
2023-05-23T01:55:14.317Z,22.70
2023-05-23T01:57:42.022Z,24.60
2023-05-23T02:00:12.580Z,25.57
2023-05-23T02:02:39.768Z,22.53
2023-05-23T02:05:07.228Z,23.17
2023-05-23T02:07:34.449Z,23.97
2023-05-23T02:10:01.630Z,21.53
2023-05-23T02:12:28.809Z,22.20
2023-05-23T02:14:56.198Z,19.60
2023-05-23T02:17:24.334Z,20.50
2023-05-23T02:19:51.603Z,20.47
2023-05-23T02:22:18.765Z,20.97
2023-05-23T02:24:45.932Z,23.23
2023-05-23T02:27:13.201Z,20.87
2023-05-23T02:29:40.340Z,24.43
2023-05-23T02:32:07.639Z,24.90
2023-05-23T02:34:34.867Z,24.00
2023-05-23T02:37:02.021Z,23.57
2023-05-23T02:39:29.201Z,22.17
2023-05-23T02:41:56.349Z,23.60
2023-05-23T02:44:23.510Z,22.00
2023-05-23T02:46:50.707Z,22.90
2023-05-23T02:49:17.922Z,27.33
2023-05-23T02:51:45.061Z,26.03
2023-05-23T02:54:12.214Z,25.53
2023-05-23T02:56:39.408Z,21.77
2023-05-23T02:59:06.617Z,25.77
2023-05-23T03:01:33.830Z,25.80
2023-05-23T03:04:01.040Z,26.47
2023-05-23T03:06:28.765Z,27.10
2023-05-23T03:08:57.056Z,26.07
2023-05-23T03:11:24.219Z,25.63
2023-05-23T03:13:51.370Z,26.53
2023-05-23T03:16:18.525Z,26.43
2023-05-23T03:18:45.685Z,28.87
2023-05-23T03:21:12.794Z,24.73
2023-05-23T03:23:39.910Z,26.13
2023-05-23T03:26:07.201Z,26.07
2023-05-23T03:28:34.340Z,23.60
2023-05-23T03:31:01.458Z,23.57
2023-05-23T03:33:28.596Z,24.93
2023-05-23T03:35:57.567Z,21.13
2023-05-23T03:38:24.695Z,24.07
2023-05-23T03:40:51.833Z,24.00
2023-05-23T03:43:18.921Z,22.87
2023-05-23T03:45:46.153Z,23.80
2023-05-23T03:48:13.349Z,24.33
2023-05-23T03:50:40.500Z,24.53
2023-05-23T03:53:07.693Z,24.53
2023-05-23T03:55:34.837Z,26.23
2023-05-23T03:58:02.032Z,27.40
2023-05-23T04:00:29.144Z,26.10
2023-05-23T04:02:57.379Z,26.43
2023-05-23T04:05:24.629Z,26.20
2023-05-23T04:07:52.526Z,25.40
2023-05-23T04:10:19.687Z,23.60
2023-05-23T04:12:47.858Z,23.33
2023-05-23T04:15:15.043Z,24.13
2023-05-23T04:17:43.750Z,26.27
2023-05-23T04:20:11.612Z,24.10
2023-05-23T04:22:38.778Z,23.57
2023-05-23T04:25:06.548Z,24.13
2023-05-23T04:27:34.644Z,27.37
2023-05-23T04:30:01.936Z,26.40
2023-05-23T04:32:29.102Z,26.33
2023-05-23T04:34:56.890Z,27.90
2023-05-23T04:37:26.206Z,27.27
2023-05-23T04:39:53.682Z,24.97
2023-05-23T04:42:24.668Z,30.37
2023-05-23T04:44:52.758Z,24.27
2023-05-23T04:47:20.183Z,23.03
2023-05-23T04:49:47.978Z,21.90
2023-05-23T04:52:15.180Z,22.73
2023-05-23T04:54:44.839Z,22.90
2023-05-23T04:57:12.505Z,25.00
2023-05-23T04:59:39.894Z,22.52
2023-05-23T05:02:07.793Z,22.50
2023-05-23T05:04:35.122Z,24.30
2023-05-23T05:07:04.296Z,21.48
2023-05-23T05:09:31.953Z,22.15
2023-05-23T05:11:59.698Z,20.73
2023-05-23T05:14:27.849Z,22.70
2023-05-23T05:16:57.574Z,21.57
2023-05-23T05:19:25.199Z,29.95
2023-05-23T05:21:52.560Z,29.02
2023-05-23T05:24:21.149Z,24.58
2023-05-23T05:26:48.966Z,23.60
2023-05-23T05:29:16.423Z,25.02
2023-05-23T05:31:45.235Z,25.60
2023-05-23T05:34:13.117Z,24.13
2023-05-23T05:36:46.995Z,24.73
2023-05-23T05:39:15.094Z,24.35
2023-05-23T05:41:42.285Z,25.95
2023-05-23T05:44:09.646Z,23.92
2023-05-23T05:46:36.844Z,25.42
2023-05-23T05:49:04.115Z,20.80
2023-05-23T05:51:31.598Z,21.73
2023-05-23T05:53:58.887Z,22.30
2023-05-23T05:56:28.089Z,21.08
2023-05-23T05:58:55.383Z,19.00
2023-05-23T06:01:23.450Z,20.15
2023-05-23T06:03:51.023Z,17.42
2023-05-23T06:06:18.324Z,18.92
2023-05-23T06:08:45.633Z,17.80
2023-05-23T06:11:12.756Z,17.27
2023-05-23T06:13:40.116Z,16.05
2023-05-23T06:16:07.479Z,15.15
2023-05-23T06:18:34.774Z,14.10
2023-05-23T06:21:01.947Z,17.95
2023-05-23T06:23:29.155Z,16.30
2023-05-23T06:25:56.367Z,17.02
2023-05-23T06:28:23.527Z,18.92
2023-05-23T06:30:50.722Z,14.00
2023-05-23T06:33:17.925Z,14.07
2023-05-23T06:35:45.066Z,14.82
2023-05-23T06:38:12.321Z,13.60
2023-05-23T06:40:39.726Z,20.02
2023-05-23T06:43:07.144Z,17.40
2023-05-23T06:45:35.914Z,13.10
2023-05-23T06:48:03.344Z,12.32
2023-05-23T06:50:30.607Z,13.98
2023-05-23T06:52:57.795Z,13.98
2023-05-23T06:55:25.239Z,12.75
2023-05-23T06:57:52.475Z,13.45
2023-05-23T07:00:20.192Z,14.45
2023-05-23T07:02:48.703Z,15.23
2023-05-23T07:05:17.422Z,10.32
2023-05-23T07:07:44.811Z,12.00
2023-05-23T07:10:12.032Z,11.55
2023-05-23T07:12:39.232Z,10.15
2023-05-23T07:15:06.665Z,10.35
2023-05-23T07:17:33.951Z,10.75
2023-05-23T07:20:01.207Z,9.52
2023-05-23T07:22:28.358Z,9.60
2023-05-23T07:24:55.553Z,10.07
2023-05-23T07:27:22.761Z,10.25
2023-05-23T07:29:50.878Z,9.77
2023-05-23T07:32:18.026Z,8.82
2023-05-23T07:34:45.191Z,10.10
2023-05-23T07:37:12.358Z,9.10
2023-05-23T07:39:39.498Z,7.85
2023-05-23T07:42:06.662Z,10.02
2023-05-23T07:44:33.859Z,10.20
2023-05-23T07:47:01.138Z,9.65
2023-05-23T07:49:28.402Z,11.77
2023-05-23T07:51:55.977Z,11.63
2023-05-23T07:54:23.115Z,10.15
2023-05-23T07:56:50.308Z,10.48
2023-05-23T07:59:17.448Z,11.02
2023-05-23T08:01:45.084Z,9.05
2023-05-23T08:04:12.615Z,8.18
2023-05-23T08:06:45.790Z,9.27
2023-05-23T08:09:26.585Z,8.23
2023-05-23T08:11:54.520Z,7.53
2023-05-23T08:14:22.686Z,7.30
2023-05-23T08:16:49.965Z,9.50
2023-05-23T08:19:17.298Z,8.52
2023-05-23T08:21:44.560Z,8.57
2023-05-23T08:24:14.950Z,8.70
2023-05-23T08:26:42.467Z,9.43
2023-05-23T08:29:10.610Z,7.05
2023-05-23T08:31:37.934Z,6.68
2023-05-23T08:34:05.271Z,7.55
2023-05-23T08:36:34.276Z,6.50
2023-05-23T08:39:02.088Z,7.32
2023-05-23T08:41:30.623Z,7.05
2023-05-23T08:43:58.309Z,5.93
2023-05-23T08:46:27.083Z,7.50
2023-05-23T08:48:55.156Z,5.25
2023-05-23T08:51:23.099Z,6.60
2023-05-23T08:53:52.908Z,5.68
2023-05-23T08:56:20.712Z,5.53
2023-05-23T08:58:48.584Z,8.00
2023-05-23T09:01:18.435Z,7.55
2023-05-23T09:03:45.772Z,15.13
2023-05-23T09:06:13.143Z,19.65
2023-05-23T09:08:40.530Z,9.60
2023-05-23T09:11:08.864Z,5.90
2023-05-23T09:13:36.046Z,7.20
2023-05-23T09:16:04.725Z,8.55
2023-05-23T09:18:39.288Z,6.18
2023-05-23T09:21:07.095Z,10.93
2023-05-23T09:23:34.509Z,46.88
2023-05-23T09:26:05.221Z,8.65
2023-05-23T09:28:33.787Z,5.55
2023-05-23T09:31:04.885Z,31.63
2023-05-23T09:33:50.101Z,8.65
2023-05-23T09:36:18.006Z,7.00
2023-05-23T09:38:52.604Z,5.97
2023-05-23T09:41:21.688Z,6.75
2023-05-23T09:43:55.126Z,8.23
2023-05-23T09:46:22.746Z,7.45
2023-05-23T09:48:51.784Z,10.18
2023-05-23T09:51:21.368Z,6.07
2023-05-23T09:53:48.861Z,6.57
2023-05-23T09:56:19.441Z,7.47
2023-05-23T09:58:50.312Z,7.93
2023-05-23T10:01:17.800Z,7.63
2023-05-23T10:03:58.102Z,6.25
2023-05-23T10:06:32.956Z,7.15
2023-05-23T10:09:03.348Z,5.75
2023-05-23T10:11:36.740Z,5.55
2023-05-23T10:14:06.270Z,6.68
2023-05-23T10:16:52.513Z,7.00
2023-05-23T10:19:19.742Z,5.45
2023-05-23T10:22:01.425Z,7.80
2023-05-23T10:24:28.588Z,6.78
2023-05-23T10:26:56.058Z,5.47
2023-05-23T10:29:23.898Z,5.68
2023-05-23T10:31:51.631Z,6.40
2023-05-23T10:34:37.632Z,6.47
2023-05-23T10:37:05.772Z,4.95
2023-05-23T10:39:48.212Z,5.43
2023-05-23T10:42:20.665Z,4.65
2023-05-23T10:44:47.844Z,3.97
2023-05-23T10:47:26.641Z,5.10
2023-05-23T10:49:54.559Z,4.95
2023-05-23T10:52:26.716Z,5.28
2023-05-23T10:54:55.019Z,7.50
2023-05-23T10:57:23.422Z,4.97
2023-05-23T10:59:51.943Z,7.35
2023-05-23T11:02:20.448Z,4.53
2023-05-23T11:04:48.651Z,6.35
2023-05-23T11:07:31.691Z,5.10
2023-05-23T11:10:08.157Z,8.93
2023-05-23T11:12:42.712Z,5.50
2023-05-23T11:15:20.430Z,5.97
2023-05-23T11:17:54.979Z,5.70
2023-05-23T11:20:26.553Z,4.95
2023-05-23T11:22:55.786Z,5.45
2023-05-23T11:25:40.010Z,5.60
2023-05-23T11:28:07.330Z,5.40
2023-05-23T11:30:39.506Z,5.43
2023-05-23T11:33:13.619Z,6.07
2023-05-23T11:35:44.612Z,3.75
2023-05-23T11:38:12.239Z,4.65
2023-05-23T11:40:40.732Z,4.47
2023-05-23T11:43:12.973Z,4.93
2023-05-23T11:45:40.493Z,4.43
2023-05-23T11:48:11.903Z,4.60
2023-05-23T11:50:49.377Z,4.93
2023-05-23T11:53:19.030Z,5.13
2023-05-23T11:55:50.282Z,4.93
2023-05-23T11:58:17.528Z,5.53
2023-05-23T12:00:45.617Z,5.90
2023-05-23T12:03:13.069Z,5.07
2023-05-23T12:05:40.501Z,7.03
2023-05-23T12:08:07.701Z,4.88
2023-05-23T12:10:34.876Z,5.63
2023-05-23T12:13:02.240Z,3.97
2023-05-23T12:15:31.758Z,6.10
2023-05-23T12:17:59.034Z,6.35
2023-05-23T12:20:26.706Z,5.00
2023-05-23T12:22:55.052Z,5.10
2023-05-23T12:25:23.336Z,5.10
2023-05-23T12:27:50.572Z,6.18
2023-05-23T12:30:18.342Z,7.07
2023-05-23T12:32:49.242Z,5.47
2023-05-23T12:35:16.596Z,5.47
2023-05-23T12:37:47.293Z,6.15
2023-05-23T12:40:15.169Z,7.80
2023-05-23T12:42:55.279Z,7.20
2023-05-23T12:45:23.538Z,6.10
2023-05-23T12:47:53.739Z,7.35
2023-05-23T12:50:21.226Z,7.00
2023-05-23T12:52:48.446Z,8.57
2023-05-23T12:55:15.793Z,5.65
2023-05-23T12:57:42.972Z,6.07
2023-05-23T13:00:10.557Z,8.35
2023-05-23T13:02:37.915Z,7.15
2023-05-23T13:05:05.189Z,6.70
2023-05-23T13:07:32.467Z,5.00
2023-05-23T13:09:59.737Z,5.47
2023-05-23T13:12:27.542Z,6.65
2023-05-23T13:14:54.757Z,6.18
2023-05-23T13:17:22.104Z,7.40
2023-05-23T13:19:49.262Z,4.50
2023-05-23T13:22:16.645Z,7.75
2023-05-23T13:24:44.011Z,4.82
2023-05-23T13:27:11.211Z,6.28
2023-05-23T13:29:38.437Z,4.22
2023-05-23T13:32:05.699Z,5.20
2023-05-23T13:34:35.211Z,5.03
2023-05-23T13:37:02.434Z,5.95
2023-05-23T13:39:29.664Z,4.00
2023-05-23T13:41:56.828Z,6.03
2023-05-23T13:44:24.096Z,5.72
2023-05-23T13:46:51.333Z,4.07
2023-05-23T13:49:18.673Z,3.97
2023-05-23T13:51:46.033Z,4.28
2023-05-23T13:54:13.968Z,3.78
2023-05-23T13:56:41.244Z,5.40
2023-05-23T13:59:08.376Z,4.05
2023-05-23T14:01:35.601Z,3.80
2023-05-23T14:04:04.292Z,3.50
2023-05-23T14:06:32.892Z,4.13
2023-05-23T14:09:00.073Z,7.60
2023-05-23T14:11:28.451Z,6.68
2023-05-23T14:13:57.894Z,5.38
2023-05-23T14:16:25.119Z,4.55
2023-05-23T14:18:52.405Z,3.22
2023-05-23T14:21:19.819Z,5.47
2023-05-23T14:23:47.096Z,4.90
2023-05-23T14:26:14.266Z,3.58
2023-05-23T14:28:41.619Z,4.78
2023-05-23T14:31:08.790Z,7.38
2023-05-23T14:33:36.034Z,4.57
2023-05-23T14:36:03.456Z,6.65
2023-05-23T14:38:30.640Z,5.90
2023-05-23T14:40:59.213Z,6.15
2023-05-23T14:43:26.939Z,5.82
2023-05-23T14:45:54.128Z,4.97
2023-05-23T14:48:21.299Z,4.68
2023-05-23T14:50:48.534Z,4.80
2023-05-23T14:53:15.986Z,5.65
2023-05-23T14:55:43.267Z,5.55
2023-05-23T14:58:10.677Z,7.15
2023-05-23T15:00:38.304Z,5.78
2023-05-23T15:03:05.590Z,4.30
2023-05-23T15:05:32.883Z,5.03
2023-05-23T15:08:00.474Z,6.35
2023-05-23T15:10:27.644Z,6.20
2023-05-23T15:12:54.902Z,5.32
2023-05-23T15:15:23.544Z,4.30
2023-05-23T15:17:51.212Z,6.28
2023-05-23T15:20:18.504Z,6.45
2023-05-23T15:22:46.249Z,9.95
2023-05-23T15:25:13.397Z,3.67
2023-05-23T15:27:40.621Z,5.50
2023-05-23T15:30:08.059Z,3.67
2023-05-23T15:32:35.281Z,6.60
2023-05-23T15:35:02.479Z,3.55
2023-05-23T15:37:29.628Z,6.93
2023-05-23T15:39:56.752Z,3.88
2023-05-23T15:42:23.869Z,3.60
2023-05-23T15:44:51.342Z,14.07
2023-05-23T15:47:19.260Z,4.57
2023-05-23T15:49:46.423Z,17.38
2023-05-23T15:52:13.705Z,5.63
2023-05-23T15:54:40.892Z,4.50
2023-05-23T15:57:08.059Z,8.45
2023-05-23T15:59:37.576Z,5.18
2023-05-23T16:02:06.357Z,7.10
2023-05-23T16:04:36.014Z,3.38
2023-05-23T16:07:05.941Z,5.18
2023-05-23T16:09:33.120Z,4.53
2023-05-23T16:12:00.278Z,3.85
2023-05-23T16:14:27.444Z,7.10
2023-05-23T16:16:54.634Z,10.75
2023-05-23T16:19:21.987Z,5.63
2023-05-23T16:21:50.326Z,4.65
2023-05-23T16:24:18.298Z,6.93
2023-05-23T16:26:45.599Z,21.83
2023-05-23T16:29:13.834Z,9.95
2023-05-23T16:31:41.140Z,7.72
2023-05-23T16:34:08.542Z,5.72
2023-05-23T16:36:36.670Z,6.72
2023-05-23T16:39:04.018Z,6.90
2023-05-23T16:41:31.229Z,4.88
2023-05-23T16:43:58.380Z,8.20
2023-05-23T16:46:25.651Z,6.95
2023-05-23T16:48:52.885Z,8.15
2023-05-23T16:51:20.108Z,6.60
2023-05-23T16:53:47.648Z,5.85
2023-05-23T16:56:14.847Z,6.38
2023-05-23T16:58:42.178Z,6.40
2023-05-23T17:01:09.455Z,8.05
2023-05-23T17:03:36.851Z,11.13
2023-05-23T17:06:04.133Z,6.90
2023-05-23T17:08:31.296Z,7.70
2023-05-23T17:10:58.502Z,6.53
2023-05-23T17:13:26.031Z,7.03
2023-05-23T17:15:53.229Z,7.50
2023-05-23T17:18:20.568Z,8.05
2023-05-23T17:20:47.719Z,6.55
2023-05-23T17:23:14.926Z,9.63
2023-05-23T17:25:42.580Z,7.65
2023-05-23T17:28:09.946Z,7.10
2023-05-23T17:30:37.097Z,6.07
2023-05-23T17:33:04.386Z,5.43
2023-05-23T17:35:31.729Z,6.72
2023-05-23T17:38:00.545Z,9.32
2023-05-23T17:40:27.748Z,7.45
2023-05-23T17:42:54.941Z,6.60
2023-05-23T17:45:22.171Z,6.88
2023-05-23T17:47:49.386Z,7.70
2023-05-23T17:50:16.683Z,7.03
2023-05-23T17:52:44.777Z,7.60
2023-05-23T17:55:12.027Z,8.80
2023-05-23T17:57:39.275Z,6.43
2023-05-23T18:00:07.131Z,7.00
2023-05-23T18:02:34.404Z,6.83
2023-05-23T18:05:02.099Z,6.87
2023-05-23T18:07:29.653Z,9.17
2023-05-23T18:09:59.938Z,8.50
2023-05-23T18:12:27.150Z,7.87
2023-05-23T18:14:54.382Z,6.57
2023-05-23T18:17:21.786Z,7.50
2023-05-23T18:19:49.457Z,7.37
2023-05-23T18:22:16.751Z,10.83
2023-05-23T18:24:44.154Z,9.77
2023-05-23T18:27:11.288Z,9.23
2023-05-23T18:29:38.518Z,9.10
2023-05-23T18:32:05.847Z,7.40
2023-05-23T18:34:33.004Z,7.50
2023-05-23T18:37:00.265Z,11.20
2023-05-23T18:39:27.413Z,9.30
2023-05-23T18:41:54.586Z,11.23
2023-05-23T18:44:23.083Z,10.57
2023-05-23T18:46:50.492Z,8.50
2023-05-23T18:49:17.816Z,9.83
2023-05-23T18:51:47.423Z,9.10
2023-05-23T18:54:14.570Z,7.97
2023-05-23T18:56:42.005Z,8.87
2023-05-23T18:59:13.544Z,9.27
2023-05-23T19:01:41.101Z,8.67
2023-05-23T19:04:08.713Z,9.00
2023-05-23T19:06:36.418Z,8.37
2023-05-23T19:09:09.378Z,8.40
2023-05-23T19:11:37.660Z,10.90
2023-05-23T19:14:04.925Z,12.73
2023-05-23T19:16:34.328Z,10.80
2023-05-23T19:19:01.507Z,10.97
2023-05-23T19:21:28.776Z,9.53
2023-05-23T19:23:56.573Z,9.60
2023-05-23T19:26:24.071Z,10.60
2023-05-23T19:28:51.358Z,9.97
2023-05-23T19:31:18.588Z,9.17
2023-05-23T19:33:45.764Z,9.43
2023-05-23T19:36:13.423Z,8.97
2023-05-23T19:38:40.602Z,10.40
2023-05-23T19:41:08.693Z,9.40
2023-05-23T19:43:35.865Z,14.53
2023-05-23T19:46:03.077Z,11.70
2023-05-23T19:48:30.399Z,9.63
2023-05-23T19:50:57.582Z,11.37
2023-05-23T19:53:24.752Z,11.73
2023-05-23T19:55:52.249Z,11.77
2023-05-23T19:58:19.451Z,13.17
2023-05-23T20:00:46.615Z,11.33
2023-05-23T20:03:13.781Z,12.53
2023-05-23T20:05:41.194Z,15.50
2023-05-23T20:08:08.562Z,12.43
2023-05-23T20:10:35.745Z,11.50
2023-05-23T20:13:02.955Z,16.30
2023-05-23T20:15:39.556Z,11.53
2023-05-23T20:18:07.584Z,15.90
2023-05-23T20:20:34.885Z,10.80
2023-05-23T20:23:02.085Z,12.13
2023-05-23T20:25:29.309Z,16.10
2023-05-23T20:27:56.618Z,18.67
2023-05-23T20:30:23.898Z,16.07
2023-05-23T20:32:53.591Z,13.20
2023-05-23T20:35:22.490Z,14.63
2023-05-23T20:37:53.589Z,14.17
2023-05-23T20:40:22.226Z,14.70
2023-05-23T20:42:49.921Z,13.53
2023-05-23T20:45:17.320Z,16.50
2023-05-23T20:47:44.814Z,11.40
2023-05-23T20:50:15.525Z,14.43
2023-05-23T20:52:43.248Z,15.50
2023-05-23T20:55:10.927Z,11.53
2023-05-23T20:57:38.361Z,14.77
2023-05-23T21:00:13.117Z,14.33
2023-05-23T21:02:43.868Z,12.90
2023-05-23T21:05:12.359Z,14.07
2023-05-23T21:07:40.072Z,14.33
2023-05-23T21:10:07.456Z,14.77
2023-05-23T21:12:34.657Z,13.83
2023-05-23T21:15:01.792Z,12.27
2023-05-23T21:17:29.018Z,13.20
2023-05-23T21:19:56.283Z,12.30
2023-05-23T21:22:23.521Z,12.73
2023-05-23T21:24:50.846Z,14.03
2023-05-23T21:27:18.036Z,13.47
2023-05-23T21:29:46.862Z,12.73
2023-05-23T21:32:14.301Z,11.90
2023-05-23T21:34:41.658Z,12.53
2023-05-23T21:37:09.157Z,11.57
2023-05-23T21:39:50.052Z,15.53
2023-05-23T21:42:18.966Z,12.83
2023-05-23T21:44:46.225Z,15.80
2023-05-23T21:47:13.609Z,13.10
2023-05-23T21:49:40.831Z,15.80
2023-05-23T21:52:08.030Z,15.30
2023-05-23T21:54:35.312Z,13.37
2023-05-23T21:57:02.539Z,16.73
2023-05-23T21:59:29.778Z,13.50
2023-05-23T22:01:57.084Z,16.97
2023-05-23T22:04:24.308Z,14.07
2023-05-23T22:06:51.974Z,12.13
2023-05-23T22:09:19.200Z,11.07
2023-05-23T22:11:46.369Z,12.57
2023-05-23T22:14:13.616Z,14.07
2023-05-23T22:16:40.930Z,13.07
2023-05-23T22:19:12.485Z,19.37
2023-05-23T22:21:39.851Z,14.67
2023-05-23T22:24:07.169Z,14.87
2023-05-23T22:26:34.387Z,13.70
2023-05-23T22:29:02.101Z,14.83
2023-05-23T22:31:29.326Z,16.77
2023-05-23T22:33:56.678Z,12.87
2023-05-23T22:36:23.861Z,18.37
2023-05-23T22:38:51.426Z,15.47
2023-05-23T22:41:18.905Z,15.80
2023-05-23T22:43:46.782Z,15.30
2023-05-23T22:46:14.289Z,15.77
2023-05-23T22:48:41.734Z,17.20
2023-05-23T22:51:12.417Z,18.40
2023-05-23T22:53:39.760Z,15.77
2023-05-23T22:56:06.929Z,15.93
2023-05-23T22:58:34.134Z,13.43
2023-05-23T23:01:01.309Z,17.43
2023-05-23T23:03:28.526Z,16.57
2023-05-23T23:05:55.729Z,16.10
2023-05-23T23:08:22.938Z,14.10
2023-05-23T23:10:50.119Z,13.33
2023-05-23T23:13:17.326Z,16.20
2023-05-23T23:15:45.290Z,16.30
2023-05-23T23:18:13.786Z,15.63
2023-05-23T23:20:41.755Z,15.87
2023-05-23T23:23:09.083Z,12.80
2023-05-23T23:25:40.289Z,13.03
2023-05-23T23:28:07.503Z,15.23
2023-05-23T23:30:34.732Z,15.40
2023-05-23T23:33:02.013Z,14.13
2023-05-23T23:35:29.292Z,15.97
2023-05-23T23:37:56.442Z,16.20
2023-05-23T23:40:23.615Z,17.70
2023-05-23T23:42:50.765Z,19.63
2023-05-23T23:45:17.920Z,16.33
2023-05-23T23:47:46.209Z,22.90
2023-05-23T23:50:14.010Z,15.70
2023-05-23T23:52:41.339Z,12.27
2023-05-23T23:55:08.631Z,14.03
2023-05-23T23:57:35.794Z,14.07
